Stokenchurch, United Kingdom
Current Conditions -  °F | °C
As of 12:50 PM on Sunday 21 Dec 2014 (Local Time) from EGUB Reporting Station
Broken Clouds Broken Clouds  
Wind Chill: 43°   Ceiling: 1500
Heat Index: 48°   Visibility: 6mi
Dew Point: 43°   Wind: 13mph
Humidity: 82%   Direction: 210°SSW
Pressure: 30.3"   Gusts: NA
Location:  51.66°N, 0.9°W
Report Text: EGUB 211250Z AUTO 21011KT 9999 // BKN015/// SCT023/// 09/06 Q1026
Loading
Personal Weather Stations






























Interactive Weather Map New forecast layout! Learn more

10-Day Weather Forecast

Advertisements
Track Severe Weather on mobile